createdAt,value
2022-09-23T00:00:47.746Z,98.71
2022-09-23T00:01:47.781Z,98.82
2022-09-23T00:02:47.786Z,98.82
2022-09-23T00:03:47.724Z,98.71
2022-09-23T00:04:47.734Z,98.82
2022-09-23T00:05:47.697Z,98.82
2022-09-23T00:06:47.692Z,98.82
2022-09-23T00:07:47.667Z,98.86
2022-09-23T00:08:47.655Z,98.75
2022-09-23T00:09:47.653Z,98.86
2022-09-23T00:10:47.627Z,98.75
2022-09-23T00:11:47.626Z,98.86
2022-09-23T00:12:47.597Z,98.86
2022-09-23T00:13:47.598Z,98.86
2022-09-23T00:14:49.588Z,98.75
2022-09-23T00:15:47.577Z,98.55
2022-09-23T00:16:47.592Z,98.44
2022-09-23T00:17:47.537Z,98.44
2022-09-23T00:18:47.529Z,98.44
2022-09-23T00:19:48.527Z,98.49
2022-09-23T00:20:56.225Z,98.49
2022-09-23T00:21:47.504Z,98.60
2022-09-23T00:22:47.530Z,98.70
2022-09-23T00:23:47.492Z,98.70
2022-09-23T00:24:47.501Z,98.70
2022-09-23T00:25:47.483Z,98.80
2022-09-23T00:26:47.453Z,98.80
2022-09-23T00:27:47.464Z,98.91
2022-09-23T00:28:47.427Z,99.01
2022-09-23T00:29:49.444Z,99.22
2022-09-23T00:30:47.508Z,99.32
2022-09-23T00:31:47.494Z,99.43
2022-09-23T00:32:47.393Z,99.52
2022-09-23T00:33:47.354Z,99.63
2022-09-23T00:34:47.424Z,99.52
2022-09-23T00:35:47.345Z,99.43
2022-09-23T00:36:47.306Z,99.22
2022-09-23T00:37:47.306Z,99.22
2022-09-23T00:38:47.304Z,99.32
2022-09-23T00:39:47.294Z,99.32
2022-09-23T00:40:47.359Z,99.32
2022-09-23T00:41:47.305Z,99.32
2022-09-23T00:42:47.257Z,99.43
2022-09-23T00:43:47.265Z,99.43
2022-09-23T00:44:47.237Z,99.32
2022-09-23T00:45:47.276Z,99.22
2022-09-23T00:46:47.183Z,99.22
2022-09-23T00:47:47.199Z,99.01
2022-09-23T00:48:47.146Z,99.01
2022-09-23T00:49:47.165Z,99.01
2022-09-23T00:50:47.144Z,99.01
2022-09-23T00:51:47.130Z,99.01
2022-09-23T00:52:47.123Z,98.91
2022-09-23T00:53:48.079Z,98.91
2022-09-23T00:54:47.108Z,98.91
2022-09-23T00:55:47.078Z,98.95
2022-09-23T00:56:47.046Z,99.05
2022-09-23T00:57:47.040Z,99.16
2022-09-23T00:58:47.040Z,99.16
2022-09-23T00:59:47.036Z,99.26
2022-09-23T01:00:47.052Z,99.37
2022-09-23T01:01:47.086Z,99.37
2022-09-23T01:02:47.044Z,99.57
2022-09-23T01:03:46.967Z,99.57
2022-09-23T01:04:46.971Z,99.78
2022-09-23T01:05:46.967Z,99.68
2022-09-23T01:06:46.918Z,99.78
2022-09-23T01:07:46.930Z,99.68
2022-09-23T01:08:46.917Z,99.68
2022-09-23T01:09:46.919Z,99.68
2022-09-23T01:10:46.884Z,99.57
2022-09-23T01:11:46.878Z,99.78
2022-09-23T01:12:46.867Z,99.88
2022-09-23T01:13:46.849Z,99.94
2022-09-23T01:14:46.829Z,99.94
2022-09-23T01:15:46.819Z,99.99
2022-09-23T01:16:46.847Z,99.94
2022-09-23T01:17:46.777Z,99.94
2022-09-23T01:18:46.775Z,99.84
2022-09-23T01:19:46.784Z,99.84
2022-09-23T01:20:46.751Z,99.84
2022-09-23T01:21:46.740Z,99.73
2022-09-23T01:22:46.710Z,99.78
2022-09-23T01:23:46.708Z,99.88
2022-09-23T01:24:46.715Z,99.88
2022-09-23T01:25:46.690Z,99.88
2022-09-23T01:26:46.676Z,99.88
2022-09-23T01:27:46.673Z,99.99
2022-09-23T01:28:46.639Z,99.99
2022-09-23T01:29:46.642Z,99.99
2022-09-23T01:30:46.665Z,99.99
2022-09-23T01:31:46.608Z,99.99
2022-09-23T01:32:46.590Z,99.99
2022-09-23T01:33:46.583Z,99.99
2022-09-23T01:34:46.581Z,99.99
2022-09-23T01:35:46.543Z,99.99
2022-09-23T01:36:46.531Z,99.99
2022-09-23T01:37:46.533Z,99.99
2022-09-23T01:38:46.536Z,99.99
2022-09-23T01:39:46.492Z,99.99
2022-09-23T01:40:46.621Z,99.99
2022-09-23T01:41:46.481Z,99.99
2022-09-23T01:42:46.449Z,99.99
2022-09-23T01:43:46.442Z,99.78
2022-09-23T01:44:46.463Z,99.68
2022-09-23T01:45:46.435Z,99.68
2022-09-23T01:46:46.413Z,99.78
2022-09-23T01:47:46.395Z,99.88
2022-09-23T01:48:46.437Z,99.99
2022-09-23T01:49:46.408Z,99.99
2022-09-23T01:50:46.365Z,99.99
2022-09-23T01:51:46.353Z,99.99
2022-09-23T01:52:46.345Z,99.99
2022-09-23T01:53:46.336Z,99.99
2022-09-23T01:54:46.304Z,99.99
2022-09-23T01:55:46.305Z,99.99
2022-09-23T01:56:46.289Z,99.99
2022-09-23T01:57:46.266Z,99.99
2022-09-23T01:58:46.244Z,99.99
2022-09-23T01:59:46.254Z,99.99
2022-09-23T02:00:46.234Z,99.99
2022-09-23T02:01:46.276Z,99.99
2022-09-23T02:02:46.231Z,99.99
2022-09-23T02:03:46.185Z,99.99
2022-09-23T02:04:46.187Z,99.99
2022-09-23T02:05:46.161Z,99.99
2022-09-23T02:06:46.145Z,99.99
2022-09-23T02:07:46.126Z,99.99
2022-09-23T02:08:46.108Z,99.99
2022-09-23T02:09:47.086Z,99.99
2022-09-23T02:10:47.092Z,99.99
2022-09-23T02:11:46.067Z,99.99
2022-09-23T02:12:46.076Z,99.99
2022-09-23T02:13:46.048Z,99.99
2022-09-23T02:14:47.073Z,99.99
2022-09-23T02:15:46.017Z,99.99
2022-09-23T02:16:46.045Z,99.88
2022-09-23T02:17:46.010Z,99.68
2022-09-23T02:18:45.983Z,99.57
2022-09-23T02:19:45.977Z,99.37
2022-09-23T02:20:45.960Z,99.37
2022-09-23T02:21:45.937Z,99.37
2022-09-23T02:22:45.947Z,99.37
2022-09-23T02:23:45.924Z,99.41
2022-09-23T02:24:45.924Z,99.41
2022-09-23T02:25:45.908Z,99.41
2022-09-23T02:26:45.919Z,99.52
2022-09-23T02:27:45.877Z,99.72
2022-09-23T02:28:45.929Z,99.82
2022-09-23T02:29:45.887Z,99.99
2022-09-23T02:30:45.848Z,99.99
2022-09-23T02:31:45.882Z,99.99
2022-09-23T02:32:45.798Z,99.99
2022-09-23T02:33:45.797Z,99.99
2022-09-23T02:34:45.900Z,99.99
2022-09-23T02:35:45.771Z,99.99
2022-09-23T02:36:45.769Z,99.99
2022-09-23T02:37:45.757Z,99.99
2022-09-23T02:38:45.766Z,99.99
2022-09-23T02:39:45.725Z,99.99
2022-09-23T02:40:45.790Z,99.99
2022-09-23T02:41:45.690Z,99.99
2022-09-23T02:42:45.689Z,99.99
2022-09-23T02:43:45.669Z,99.99
2022-09-23T02:44:45.695Z,99.99
2022-09-23T02:45:45.670Z,99.88
2022-09-23T02:46:45.620Z,99.78
2022-09-23T02:47:45.619Z,99.72
2022-09-23T02:48:45.601Z,99.72
2022-09-23T02:49:45.609Z,99.72
2022-09-23T02:50:45.593Z,99.72
2022-09-23T02:51:45.561Z,99.82
2022-09-23T02:52:45.587Z,99.93
2022-09-23T02:53:45.541Z,99.99
2022-09-23T02:54:45.547Z,99.99
2022-09-23T02:55:45.500Z,99.99
2022-09-23T02:56:45.514Z,99.99
2022-09-23T02:57:45.490Z,99.99
2022-09-23T02:58:45.470Z,99.99
2022-09-23T02:59:45.479Z,99.99
2022-09-23T03:00:45.534Z,99.99
2022-09-23T03:01:45.441Z,99.99
2022-09-23T03:02:45.432Z,99.99
2022-09-23T03:03:45.401Z,99.99
2022-09-23T03:04:45.402Z,99.99
2022-09-23T03:05:45.373Z,99.99
2022-09-23T03:06:45.362Z,99.99
2022-09-23T03:07:46.331Z,99.99
2022-09-23T03:08:45.355Z,99.99
2022-09-23T03:09:45.533Z,99.99
2022-09-23T03:10:45.323Z,99.88
2022-09-23T03:11:45.405Z,99.88
2022-09-23T03:12:45.293Z,99.78
2022-09-23T03:13:45.265Z,99.78
2022-09-23T03:14:45.274Z,99.68
2022-09-23T03:15:45.262Z,99.57
2022-09-23T03:16:45.261Z,99.57
2022-09-23T03:17:45.225Z,99.47
2022-09-23T03:18:45.228Z,99.47
2022-09-23T03:19:45.206Z,99.41
2022-09-23T03:20:45.257Z,99.41
2022-09-23T03:21:45.266Z,99.52
2022-09-23T03:22:45.164Z,99.52
2022-09-23T03:23:45.149Z,99.41
2022-09-23T03:24:45.174Z,99.52
2022-09-23T03:25:45.134Z,99.41
2022-09-23T03:26:45.195Z,99.31
2022-09-23T03:27:45.115Z,99.31
2022-09-23T03:28:45.128Z,99.21
2022-09-23T03:29:45.096Z,99.25
2022-09-23T03:30:45.085Z,99.25
2022-09-23T03:31:45.067Z,99.35
2022-09-23T03:32:45.016Z,99.56
2022-09-23T03:33:45.006Z,99.66
2022-09-23T03:34:46.106Z,99.77
2022-09-23T03:35:44.998Z,99.87
2022-09-23T03:36:45.074Z,99.87
2022-09-23T03:37:44.995Z,99.98
2022-09-23T03:38:44.996Z,99.99
2022-09-23T03:39:44.967Z,99.99
2022-09-23T03:40:45.040Z,99.99
2022-09-23T03:41:44.917Z,99.99
2022-09-23T03:42:44.927Z,99.99
2022-09-23T03:43:44.884Z,99.99
2022-09-23T03:44:44.927Z,99.99
2022-09-23T03:45:44.904Z,99.99
2022-09-23T03:46:44.867Z,99.99
2022-09-23T03:47:44.839Z,99.99
2022-09-23T03:48:44.818Z,99.99
2022-09-23T03:49:44.844Z,99.99
2022-09-23T04:03:25.770Z,99.25
2022-09-23T04:04:25.749Z,99.35
2022-09-23T04:05:25.783Z,99.35
2022-09-23T04:06:25.723Z,99.35
2022-09-23T04:07:25.701Z,99.25
2022-09-23T04:08:25.696Z,99.30
2022-09-23T04:09:25.684Z,99.19
2022-09-23T04:10:25.684Z,99.19
2022-09-23T04:11:25.674Z,99.30
2022-09-23T04:12:25.653Z,99.51
2022-09-23T04:13:25.662Z,99.46
2022-09-23T04:14:25.641Z,99.51
2022-09-23T04:15:25.621Z,99.40
2022-09-23T04:16:25.617Z,99.40
2022-09-23T04:17:33.074Z,99.40
2022-09-23T04:18:25.560Z,99.40
2022-09-23T04:19:25.562Z,99.51
2022-09-23T04:20:25.530Z,99.30
2022-09-23T04:21:25.514Z,99.34
2022-09-23T04:22:26.505Z,99.44
2022-09-23T04:23:25.496Z,99.55
2022-09-23T04:24:25.483Z,99.65
2022-09-23T04:25:25.452Z,99.76
2022-09-23T04:26:25.443Z,99.86
2022-09-23T04:27:26.419Z,99.86
2022-09-23T04:28:25.453Z,99.86
2022-09-23T04:29:25.414Z,99.76
2022-09-23T04:30:25.392Z,99.76
2022-09-23T04:31:25.438Z,99.76
2022-09-23T04:32:25.364Z,99.76
2022-09-23T04:33:25.364Z,99.76
2022-09-23T04:34:25.345Z,99.86
2022-09-23T04:35:25.314Z,99.96
2022-09-23T04:36:25.317Z,99.99
2022-09-23T04:37:25.293Z,99.99
2022-09-23T04:38:27.320Z,99.99
2022-09-23T04:39:25.296Z,99.99
2022-09-23T04:40:25.297Z,99.99
2022-09-23T04:41:25.246Z,99.99
2022-09-23T04:42:25.238Z,99.99
2022-09-23T04:43:25.224Z,99.99
2022-09-23T04:44:25.233Z,99.99
2022-09-23T04:45:25.216Z,99.99
2022-09-23T04:46:25.217Z,99.99
2022-09-23T04:47:25.173Z,99.99
2022-09-23T04:48:25.167Z,99.99
2022-09-23T04:49:25.165Z,99.99
2022-09-23T04:50:25.173Z,99.99
2022-09-23T04:51:25.137Z,99.99
2022-09-23T04:52:25.115Z,99.99
2022-09-23T04:53:26.094Z,99.99
2022-09-23T04:54:25.134Z,99.99
2022-09-23T04:55:25.106Z,99.99
2022-09-23T04:56:25.064Z,99.99
2022-09-23T04:57:25.042Z,99.99
2022-09-23T04:58:25.037Z,99.99
2022-09-23T04:59:25.066Z,99.99
2022-09-23T05:00:25.045Z,99.99
2022-09-23T05:01:25.172Z,99.99
2022-09-23T05:02:25.069Z,99.99
2022-09-23T05:03:24.969Z,99.99
2022-09-23T05:04:24.989Z,99.99
2022-09-23T05:05:24.954Z,99.99
2022-09-23T05:06:24.926Z,99.99
2022-09-23T05:07:24.915Z,99.99
2022-09-23T05:08:24.920Z,99.99
2022-09-23T05:09:24.896Z,99.86
2022-09-23T05:10:24.885Z,99.76
2022-09-23T05:11:24.861Z,99.55
2022-09-23T05:12:24.846Z,99.55
2022-09-23T05:13:25.826Z,99.34
2022-09-23T05:14:24.838Z,99.24
2022-09-23T05:15:24.815Z,99.13
2022-09-23T05:16:24.864Z,99.13
2022-09-23T05:17:24.783Z,99.03
2022-09-23T05:18:24.782Z,99.13
2022-09-23T05:19:24.765Z,99.13
2022-09-23T05:20:24.757Z,98.93
2022-09-23T05:21:24.735Z,98.93
2022-09-23T05:22:24.728Z,99.03
2022-09-23T05:23:24.697Z,98.82
2022-09-23T05:24:24.722Z,98.61
2022-09-23T05:25:24.683Z,98.51
2022-09-23T05:26:24.671Z,98.51
2022-09-23T05:27:24.646Z,98.51
2022-09-23T05:28:24.654Z,98.72
2022-09-23T05:29:24.637Z,98.72
2022-09-23T05:30:24.618Z,98.82
2022-09-23T05:31:24.634Z,98.93
2022-09-23T05:32:24.587Z,99.03
2022-09-23T05:33:24.590Z,99.03
2022-09-23T05:34:24.568Z,99.03
2022-09-23T05:35:24.557Z,99.13
2022-09-23T05:36:24.538Z,99.24
2022-09-23T05:37:24.518Z,99.24
2022-09-23T05:38:24.509Z,99.34
2022-09-23T05:39:24.499Z,99.55
2022-09-23T05:40:24.531Z,99.65
2022-09-23T05:41:24.467Z,99.76
2022-09-23T05:42:24.456Z,99.86
2022-09-23T05:43:24.462Z,99.99
2022-09-23T05:44:24.538Z,99.99
2022-09-23T05:45:26.789Z,99.99
2022-09-23T05:46:24.421Z,99.99
2022-09-23T05:47:24.378Z,99.99
2022-09-23T05:48:24.391Z,99.99
2022-09-23T05:49:42.578Z,99.99
2022-09-23T05:50:25.350Z,99.99
2022-09-23T05:51:28.784Z,99.99
2022-09-23T05:52:25.331Z,99.99
2022-09-23T05:53:24.316Z,99.99
2022-09-23T05:54:24.310Z,99.99
2022-09-23T05:55:24.282Z,99.99
2022-09-23T05:56:24.262Z,99.99
2022-09-23T05:57:24.259Z,99.99
2022-09-23T05:58:24.255Z,99.99
2022-09-23T05:59:24.238Z,99.99
2022-09-23T06:00:24.247Z,99.99
2022-09-23T06:01:24.259Z,99.99
2022-09-23T06:02:24.219Z,99.99
2022-09-23T06:03:24.235Z,99.99
2022-09-23T06:04:24.175Z,99.99
2022-09-23T06:05:24.151Z,99.99
2022-09-23T06:06:24.141Z,99.99
2022-09-23T06:07:24.121Z,99.99
2022-09-23T06:08:24.113Z,99.99
2022-09-23T06:09:24.108Z,99.99
2022-09-23T06:10:24.096Z,99.99
2022-09-23T06:11:24.051Z,99.99
2022-09-23T06:12:24.062Z,99.99
2022-09-23T06:13:24.034Z,99.99
2022-09-23T06:14:24.040Z,99.99
2022-09-23T06:15:24.021Z,99.99
2022-09-23T06:16:24.074Z,99.99
2022-09-23T06:17:23.982Z,99.99
2022-09-23T06:18:23.991Z,99.99
2022-09-23T06:19:23.971Z,99.99
2022-09-23T06:20:23.997Z,99.99
2022-09-23T06:21:23.946Z,99.76
2022-09-23T06:22:23.950Z,99.55
2022-09-23T06:23:26.604Z,99.24
2022-09-23T06:24:28.597Z,99.04
2022-09-23T06:25:24.884Z,98.93
2022-09-23T06:26:23.886Z,98.93
2022-09-23T06:27:23.855Z,99.09
2022-09-23T06:28:23.849Z,98.99
2022-09-23T06:29:23.856Z,98.63
2022-09-23T06:30:23.824Z,98.22
2022-09-23T06:31:23.841Z,97.76
2022-09-23T06:32:23.793Z,97.55
2022-09-23T06:33:35.337Z,97.25
2022-09-23T06:34:24.773Z,96.89
2022-09-23T06:35:27.438Z,96.69
2022-09-23T06:36:39.219Z,96.48
2022-09-23T06:37:24.724Z,96.06
2022-09-23T06:38:23.716Z,95.86
2022-09-23T06:39:23.720Z,95.76
2022-09-23T06:40:23.730Z,95.86
2022-09-23T06:41:23.674Z,95.81
2022-09-23T06:42:23.726Z,95.61
2022-09-23T06:43:23.668Z,95.71
2022-09-23T06:44:24.645Z,95.71
2022-09-23T06:45:23.645Z,96.02
2022-09-23T06:46:23.655Z,96.02
2022-09-23T06:47:23.609Z,96.02
2022-09-23T06:48:23.583Z,95.77
2022-09-23T06:49:23.595Z,95.77
2022-09-23T06:50:23.557Z,95.36
2022-09-23T06:51:23.543Z,94.80
2022-09-23T06:52:23.537Z,94.70
2022-09-23T06:53:23.526Z,94.59
2022-09-23T06:54:23.515Z,94.59
2022-09-23T06:55:23.486Z,94.45
2022-09-23T06:56:23.495Z,94.13
2022-09-23T06:57:23.467Z,93.58
2022-09-23T06:58:23.448Z,93.37
2022-09-23T06:59:23.459Z,93.06
2022-09-23T07:00:23.417Z,93.12
2022-09-23T07:01:23.531Z,93.02
2022-09-23T07:02:23.497Z,93.16
2022-09-23T07:03:23.386Z,93.48
2022-09-23T07:04:27.280Z,93.43
2022-09-23T07:05:24.358Z,93.02
2022-09-23T07:06:23.337Z,92.16
2022-09-23T07:07:23.340Z,91.29
2022-09-23T07:08:23.307Z,90.88
2022-09-23T07:09:23.320Z,91.19
2022-09-23T07:10:23.287Z,91.29
2022-09-23T07:11:23.279Z,91.19
2022-09-23T07:12:23.266Z,91.19
2022-09-23T07:13:23.259Z,91.14
2022-09-23T07:14:23.260Z,90.63
2022-09-23T07:15:23.228Z,90.32
2022-09-23T07:16:23.282Z,90.18
2022-09-23T07:17:23.199Z,89.97
2022-09-23T07:18:23.179Z,89.87
2022-09-23T07:19:23.194Z,89.76
2022-09-23T07:20:23.157Z,90.08
2022-09-23T07:21:23.152Z,90.28
2022-09-23T07:22:23.129Z,90.94
2022-09-23T07:23:23.128Z,91.14
2022-09-23T07:24:23.109Z,91.20
2022-09-23T07:25:23.110Z,91.41
2022-09-23T07:26:23.100Z,91.61
2022-09-23T07:27:23.075Z,91.61
2022-09-23T07:28:23.058Z,91.72
2022-09-23T07:29:23.050Z,91.72
2022-09-23T07:30:25.391Z,91.57
2022-09-23T07:31:34.973Z,91.47
2022-09-23T07:32:24.045Z,91.27
2022-09-23T07:33:31.738Z,91.16
2022-09-23T07:34:24.002Z,90.71
2022-09-23T07:35:22.961Z,90.30
2022-09-23T07:36:22.941Z,90.26
2022-09-23T07:37:22.945Z,89.95
2022-09-23T07:38:22.933Z,89.84
2022-09-23T07:39:22.920Z,89.84
2022-09-23T07:40:22.940Z,89.84
2022-09-23T07:41:22.883Z,90.16
2022-09-23T07:42:22.875Z,90.26
2022-09-23T07:43:22.873Z,90.26
2022-09-23T07:44:22.849Z,90.11
2022-09-23T07:45:22.824Z,90.11
2022-09-23T07:46:22.883Z,90.52
2022-09-23T07:47:22.820Z,90.42
2022-09-23T07:48:22.793Z,90.42
2022-09-23T07:49:22.783Z,90.32
2022-09-23T07:50:22.868Z,90.22
2022-09-23T07:51:22.763Z,89.25
2022-09-23T07:52:22.736Z,89.56
2022-09-23T07:53:22.738Z,89.42
2022-09-23T07:54:22.714Z,89.42
2022-09-23T07:55:22.709Z,89.31
2022-09-23T07:56:22.687Z,89.42
2022-09-23T07:57:22.688Z,89.11
2022-09-23T07:58:22.664Z,89.17
2022-09-23T07:59:22.675Z,89.17
2022-09-23T08:00:22.716Z,89.06
2022-09-23T08:01:22.664Z,89.37
2022-09-23T08:02:22.679Z,89.43
2022-09-23T08:03:22.596Z,89.33
2022-09-23T08:04:22.601Z,89.33
2022-09-23T08:05:22.575Z,88.92
2022-09-23T08:06:22.571Z,88.26
2022-09-23T08:07:22.556Z,87.85
2022-09-23T08:08:22.559Z,87.55
2022-09-23T08:09:22.536Z,86.79
2022-09-23T08:10:22.691Z,87.20
2022-09-23T08:11:22.504Z,87.61
2022-09-23T08:12:22.477Z,87.71
2022-09-23T08:13:22.473Z,87.82
2022-09-23T08:14:22.504Z,87.82
2022-09-23T08:15:22.447Z,85.83
2022-09-23T08:16:22.464Z,85.42
2022-09-23T08:17:22.425Z,84.30
2022-09-23T08:18:22.407Z,84.71
2022-09-23T08:19:22.415Z,84.41
2022-09-23T08:20:22.474Z,84.26
2022-09-23T08:21:22.371Z,83.24
2022-09-23T08:22:23.339Z,82.22
2022-09-23T08:23:22.338Z,83.20
2022-09-23T08:24:22.340Z,83.30
2022-09-23T08:25:22.803Z,82.65
2022-09-23T08:26:22.659Z,82.82
2022-09-23T08:27:24.308Z,82.82
2022-09-23T08:28:22.274Z,82.61
2022-09-23T08:29:22.273Z,83.12
2022-09-23T08:30:22.321Z,82.51
2022-09-23T08:31:22.264Z,81.39
2022-09-23T08:32:23.213Z,81.56
2022-09-23T08:33:23.503Z,81.96
2022-09-23T08:34:22.211Z,81.35
2022-09-23T08:35:22.180Z,81.52
2022-09-23T08:36:22.162Z,81.11
2022-09-23T08:37:22.151Z,80.77
2022-09-23T08:38:22.139Z,79.24
2022-09-23T08:39:22.152Z,79.00
2022-09-23T08:40:22.292Z,78.28
2022-09-23T08:41:22.101Z,78.05
2022-09-23T08:42:22.082Z,76.72
2022-09-23T08:43:22.094Z,75.81
2022-09-23T08:44:23.062Z,76.11
2022-09-23T08:45:23.051Z,75.77
2022-09-23T08:46:22.119Z,76.07
2022-09-23T08:47:22.031Z,75.37
2022-09-23T08:48:22.025Z,74.35
2022-09-23T08:49:23.012Z,73.70
2022-09-23T08:50:22.011Z,76.04
2022-09-23T08:51:21.974Z,75.33
2022-09-23T08:52:21.953Z,74.62
2022-09-23T08:53:30.461Z,74.07
2022-09-23T08:54:30.636Z,75.29
2022-09-23T08:55:21.917Z,75.49
2022-09-23T08:56:21.897Z,74.28
2022-09-23T08:57:21.887Z,73.57
2022-09-23T08:58:29.389Z,72.45
2022-09-23T08:59:21.875Z,72.14
2022-09-23T09:00:29.369Z,71.03
2022-09-23T09:01:21.862Z,72.65
2022-09-23T09:02:21.846Z,72.01
2022-09-23T09:03:21.810Z,72.11
2022-09-23T09:04:21.801Z,72.17
2022-09-23T09:05:29.304Z,70.96
2022-09-23T09:06:21.764Z,71.84
2022-09-23T09:07:38.045Z,71.94
2022-09-23T09:08:22.745Z,72.01
2022-09-23T09:09:21.753Z,72.38
2022-09-23T09:10:22.730Z,70.15
2022-09-23T09:11:29.213Z,67.41
2022-09-23T09:12:21.687Z,66.40
2022-09-23T09:13:21.682Z,69.20
2022-09-23T09:14:22.665Z,65.45
2022-09-23T09:15:29.220Z,64.14
2022-09-23T09:16:55.462Z,65.86
2022-09-23T09:17:22.617Z,68.26
2022-09-23T09:18:22.608Z,65.12
2022-09-23T09:19:22.638Z,64.11
2022-09-23T09:20:21.598Z,64.51
2022-09-23T09:21:21.579Z,64.89
2022-09-23T09:22:21.556Z,63.17
2022-09-23T09:23:21.549Z,63.67
2022-09-23T09:24:21.558Z,62.84
2022-09-23T09:25:21.546Z,64.76
2022-09-23T09:26:21.510Z,64.12
2022-09-23T09:27:21.529Z,64.83
2022-09-23T09:28:22.496Z,64.93
2022-09-23T09:29:34.755Z,63.10
2022-09-23T09:31:32.875Z,59.27
2022-09-23T09:32:32.883Z,61.69
2022-09-23T09:33:32.888Z,61.08
2022-09-23T09:34:32.819Z,61.08
2022-09-23T09:35:32.812Z,60.07
2022-09-23T09:36:32.781Z,60.07
2022-09-23T09:37:32.802Z,60.78
2022-09-23T09:38:32.729Z,61.29
2022-09-23T09:39:32.732Z,61.46
2022-09-23T09:40:32.786Z,64.59
2022-09-23T09:41:32.729Z,59.23
2022-09-23T09:42:33.762Z,62.64
2022-09-23T09:43:32.749Z,61.53
2022-09-23T09:44:32.696Z,61.13
2022-09-23T09:45:33.565Z,62.64
2022-09-23T09:46:32.713Z,63.25
2022-09-23T09:47:32.662Z,62.41
2022-09-23T10:03:55.638Z,56.82
2022-09-23T10:04:53.669Z,57.32
2022-09-23T10:05:52.577Z,57.70
2022-09-23T10:06:53.230Z,56.70
2022-09-23T10:07:54.630Z,52.74
2022-09-23T10:08:52.659Z,53.14
2022-09-23T10:09:53.889Z,53.45
2022-09-23T10:10:52.508Z,55.16
2022-09-23T10:11:52.547Z,56.14
2022-09-23T10:12:52.470Z,55.33
2022-09-23T10:13:52.457Z,56.21
2022-09-23T10:14:52.496Z,50.78
2022-09-23T10:15:52.445Z,51.68
2022-09-23T10:16:52.446Z,51.79
2022-09-23T10:17:52.508Z,53.30
2022-09-23T10:18:52.401Z,51.39
2022-09-23T10:19:52.394Z,54.08
2022-09-23T10:20:52.376Z,53.57
2022-09-23T10:21:52.407Z,52.34
2022-09-23T10:22:52.409Z,53.82
2022-09-23T10:23:52.418Z,55.33
2022-09-23T10:24:53.382Z,50.31
2022-09-23T10:25:52.587Z,48.88
2022-09-23T10:26:52.292Z,47.50
2022-09-23T10:27:52.741Z,48.30
2022-09-23T10:28:52.360Z,49.51
2022-09-23T10:29:52.281Z,51.09
2022-09-23T10:30:52.289Z,52.09
2022-09-23T10:31:52.300Z,50.36
2022-09-23T10:32:52.281Z,52.97
2022-09-23T10:33:53.141Z,52.34
2022-09-23T10:34:52.224Z,50.13
2022-09-23T10:35:52.202Z,49.93
2022-09-23T10:36:52.260Z,49.43
2022-09-23T10:37:52.164Z,49.81
2022-09-23T10:38:52.154Z,48.01
2022-09-23T10:39:52.167Z,48.89
2022-09-23T10:40:52.291Z,48.28
2022-09-23T10:41:52.134Z,45.26
2022-09-23T10:42:52.147Z,47.56
2022-09-23T10:43:52.089Z,47.44
2022-09-23T10:44:52.090Z,47.44
2022-09-23T10:45:52.171Z,48.04
2022-09-23T10:46:53.331Z,48.42
2022-09-23T10:47:52.061Z,48.22
2022-09-23T10:48:52.038Z,47.11
2022-09-23T10:49:52.033Z,46.62
2022-09-23T10:50:52.004Z,47.92
2022-09-23T10:51:51.984Z,46.31
2022-09-23T10:52:52.013Z,45.62
2022-09-23T10:53:52.030Z,44.51
2022-09-23T10:54:51.955Z,42.66
2022-09-23T10:55:52.647Z,45.96
2022-09-23T10:56:51.948Z,47.36
2022-09-23T10:57:51.960Z,46.24
2022-09-23T10:58:51.977Z,46.62
2022-09-23T10:59:51.901Z,45.31
2022-09-23T11:00:51.880Z,46.00
2022-09-23T11:01:51.946Z,47.60
2022-09-23T11:02:51.887Z,41.71
2022-09-23T11:03:51.894Z,44.04
2022-09-23T11:04:51.903Z,43.90
2022-09-23T11:05:51.813Z,43.15
2022-09-23T11:06:51.805Z,45.90
2022-09-23T11:07:51.785Z,43.67
2022-09-23T11:08:51.767Z,43.71
2022-09-23T11:09:51.762Z,39.21
2022-09-23T11:10:51.775Z,41.55
2022-09-23T11:11:51.750Z,40.01
2022-09-23T11:12:51.720Z,39.15
2022-09-23T11:13:54.389Z,38.32
2022-09-23T11:14:51.802Z,37.49
2022-09-23T11:15:52.733Z,37.87
2022-09-23T11:16:51.732Z,36.97
2022-09-23T11:17:51.730Z,36.25
2022-09-23T11:18:51.644Z,35.35
2022-09-23T11:19:51.704Z,34.74
2022-09-23T11:20:51.747Z,34.72
2022-09-23T11:21:51.609Z,34.81
2022-09-23T11:22:51.609Z,33.91
2022-09-23T11:23:51.625Z,32.92
2022-09-23T11:24:51.571Z,32.90
2022-09-23T11:25:51.574Z,33.10
2022-09-23T11:26:51.648Z,32.23
2022-09-23T11:27:51.539Z,30.76
2022-09-23T11:28:51.519Z,32.67
2022-09-23T11:29:51.569Z,34.08
2022-09-23T11:30:51.546Z,36.49
2022-09-23T11:31:54.068Z,35.34
2022-09-23T11:32:51.540Z,36.94
2022-09-23T11:33:51.510Z,37.55
2022-09-23T11:34:54.314Z,36.46
2022-09-23T11:35:51.543Z,36.16
2022-09-23T11:36:51.433Z,37.15
2022-09-23T11:37:51.458Z,35.57
2022-09-23T11:38:51.433Z,36.24
2022-09-23T11:39:51.465Z,35.35
2022-09-23T11:40:51.524Z,35.65
2022-09-23T11:41:51.457Z,36.43
2022-09-23T11:42:51.367Z,36.62
2022-09-23T11:43:51.387Z,35.14
2022-09-23T11:45:15.702Z,35.93
2022-09-23T11:45:51.373Z,36.64
2022-09-23T11:46:51.398Z,34.27
2022-09-23T11:47:51.298Z,37.73
2022-09-23T11:48:51.307Z,32.98
2022-09-23T11:49:51.313Z,34.48
2022-09-23T11:50:51.252Z,36.18
2022-09-23T11:51:58.731Z,36.60
2022-09-23T11:52:51.218Z,38.00
2022-09-23T11:53:51.247Z,39.00
2022-09-23T11:54:51.192Z,37.69
2022-09-23T11:55:57.558Z,36.22
2022-09-23T11:56:52.170Z,37.52
2022-09-23T11:57:51.154Z,37.62
2022-09-23T11:58:55.059Z,38.93
2022-09-23T11:59:52.207Z,38.54
2022-09-23T12:00:55.184Z,38.12
2022-09-23T12:01:52.156Z,37.30
2022-09-23T12:03:02.454Z,37.29
2022-09-23T12:03:52.268Z,38.36
2022-09-23T12:04:57.259Z,36.26
2022-09-23T12:05:52.285Z,35.86
2022-09-23T12:06:51.039Z,34.86
2022-09-23T12:07:51.048Z,36.64
2022-09-23T12:08:51.019Z,34.78
2022-09-23T12:09:58.795Z,38.54
2022-09-23T12:10:52.110Z,38.84
2022-09-23T12:11:51.062Z,36.16
2022-09-23T12:12:50.975Z,37.55
2022-09-23T12:13:51.098Z,38.64
2022-09-23T12:14:50.981Z,38.56
2022-09-23T12:15:51.012Z,38.60
2022-09-23T12:16:50.939Z,38.10
2022-09-23T12:17:50.923Z,37.98
2022-09-23T12:18:50.896Z,36.81
2022-09-23T12:19:50.883Z,39.11
2022-09-23T12:20:50.944Z,36.55
2022-09-23T12:21:51.584Z,34.99
2022-09-23T12:22:51.087Z,38.21
2022-09-23T12:23:51.105Z,36.72
2022-09-23T12:24:50.829Z,35.41
2022-09-23T12:25:50.826Z,37.10
2022-09-23T12:26:50.857Z,39.37
2022-09-23T12:27:50.864Z,37.28
2022-09-23T12:28:50.770Z,37.08
2022-09-23T12:29:50.771Z,38.67
2022-09-23T12:30:50.814Z,37.45
2022-09-23T12:31:50.792Z,35.66
2022-09-23T12:32:50.712Z,35.54
2022-09-23T12:33:51.730Z,35.14
2022-09-23T12:34:50.681Z,35.94
2022-09-23T12:35:50.741Z,34.53
2022-09-23T12:36:51.768Z,33.65
2022-09-23T12:37:50.639Z,36.13
2022-09-23T12:38:50.737Z,36.83
2022-09-23T12:39:50.636Z,35.42
2022-09-23T12:41:13.634Z,36.46
2022-09-23T12:41:58.134Z,36.54
2022-09-23T12:42:58.161Z,35.14
2022-09-23T12:43:50.565Z,35.30
2022-09-23T12:44:59.263Z,34.50
2022-09-23T12:45:58.176Z,34.78
2022-09-23T12:46:58.067Z,33.85
2022-09-23T12:47:58.050Z,32.26
2022-09-23T12:48:58.103Z,30.79
2022-09-23T12:49:59.218Z,31.90
2022-09-23T12:50:58.003Z,32.59
2022-09-23T12:51:57.997Z,34.55
2022-09-23T12:52:58.903Z,34.53
2022-09-23T12:53:59.157Z,31.47
2022-09-23T12:54:59.325Z,32.49
2022-09-23T12:55:57.952Z,33.09
2022-09-23T12:56:57.913Z,33.33
2022-09-23T12:57:57.918Z,34.53
2022-09-23T12:58:57.907Z,37.00
2022-09-23T13:00:00.106Z,37.02
2022-09-23T13:00:58.094Z,35.91
2022-09-23T13:01:50.385Z,36.19
2022-09-23T13:02:57.918Z,36.10
2022-09-23T13:03:57.865Z,36.27
2022-09-23T13:04:59.071Z,35.38
2022-09-23T13:05:57.804Z,36.98
2022-09-23T13:06:50.296Z,38.37
2022-09-23T13:07:57.807Z,37.89
2022-09-23T13:09:51.500Z,36.16
2022-09-23T13:12:12.683Z,37.65
2022-09-23T13:13:14.836Z,39.45
2022-09-23T13:14:12.646Z,38.66
2022-09-23T13:15:35.907Z,36.68
2022-09-23T13:16:12.680Z,38.44
2022-09-23T13:17:20.115Z,38.44
2022-09-23T13:18:12.636Z,39.14
2022-09-23T13:19:33.254Z,39.42
2022-09-23T13:20:13.593Z,40.01
2022-09-23T13:21:20.061Z,38.03
2022-09-23T13:22:12.545Z,35.75
2022-09-23T13:23:12.526Z,33.37
2022-09-23T13:24:13.590Z,33.00